S/y Irbis — J7CW7 — position and weather

sailwx.info

Track history (hours):
 
Tides and Currents Weather Stations Pressure Air Temp Water Temp Dewpoint Dewpoint Depression Visibility Wind Speed Wind Dir Waves Ship Positions

S/y Irbis

Last reported at 2018-Jul-18 04:03 UTC. Time now 2018-Jul-21 03:36 UTC.
Position N 39°22' E 002°55'.

Length 13 m.

Type: Sailing vessel. MMSI: 325725000.

Date/timePositionNaut miles runAvg speedWind from/ knotsBaromVisibWave heightAir tempDewpointWater temp
2018-Jul-18 04:03N 39°22' E 002°55'0 0.0
2018-Jul-18 03:33N 39°22' E 002°55'6 0.5
2018-Jul-17 15:20N 39°22' E 002°47'2 6.1
2018-Jul-17 15:00N 39°23' E 002°45'2 4.7
2018-Jul-17 14:29N 39°25' E 002°43'2 4.9
2018-Jul-17 13:59N 39°27' E 002°41'2 3.6
2018-Jul-17 13:30N 39°28' E 002°40'2 3.9
2018-Jul-17 13:00N 39°30' E 002°41'3 5.8
2018-Jul-17 12:30N 39°33' E 002°39'2 3.1
2018-Jul-17 12:01N 39°34' E 002°39'0 0.0
2018-Jul-17 11:31N 39°34' E 002°39'0 0.0
2018-Jul-17 11:01N 39°34' E 002°39'0 0.0
2018-Jul-17 10:28N 39°34' E 002°39'0 0.0
2018-Jul-17 09:58N 39°34' E 002°39'0 0.0
2018-Jul-17 09:31N 39°34' E 002°39'0 0.0
2018-Jul-17 09:01N 39°34' E 002°39'0 0.0
2018-Jul-17 08:28N 39°34' E 002°39'0 0.0
2018-Jul-17 08:01N 39°34' E 002°39'0 0.0
2018-Jul-17 07:28N 39°34' E 002°39'0 0.0
2018-Jul-17 07:00N 39°34' E 002°39'0 0.0
2018-Jul-17 06:29N 39°34' E 002°39'0 0.0
2018-Jul-17 05:59N 39°34' E 002°39'0 0.0
2018-Jul-17 05:29N 39°34' E 002°39'0 0.0
2018-Jul-17 04:59N 39°34' E 002°39'0 0.0
2018-Jul-17 04:29N 39°34' E 002°39'0 0.0
2018-Jul-17 03:59N 39°34' E 002°39'0 0.0
2018-Jul-17 03:29N 39°34' E 002°39'0 0.0
2018-Jul-17 02:59N 39°34' E 002°39'0 0.0
2018-Jul-17 02:29N 39°34' E 002°39'0 0.0
2018-Jul-17 01:59N 39°34' E 002°39'0 0.0
2018-Jul-17 01:29N 39°34' E 002°39'0 0.0
2018-Jul-17 00:59N 39°34' E 002°39'0 0.0
2018-Jul-17 00:26N 39°34' E 002°39'0 0.0
2018-Jul-16 23:29N 39°34' E 002°39'0 0.0
2018-Jul-16 22:56N 39°34' E 002°39'0 0.0
2018-Jul-16 22:29N 39°34' E 002°39'0 0.0
2018-Jul-16 21:59N 39°34' E 002°39'0 0.0
2018-Jul-16 21:29N 39°34' E 002°39'0 0.0
2018-Jul-16 20:56N 39°34' E 002°39'0 0.0
2018-Jul-16 20:29N 39°34' E 002°39'0 0.0
2018-Jul-16 19:59N 39°34' E 002°39'0 0.0
2018-Jul-16 19:29N 39°34' E 002°39'0 0.0
2018-Jul-16 18:59N 39°34' E 002°39'0 0.0
2018-Jul-16 18:28N 39°34' E 002°39'0 0.0
2018-Jul-16 17:58N 39°34' E 002°39'0 0.0
2018-Jul-16 17:28N 39°34' E 002°39'0 0.0
2018-Jul-16 17:01N 39°34' E 002°39'0 0.0
2018-Jul-16 16:28N 39°34' E 002°39'0 0.0
2018-Jul-16 15:58N 39°34' E 002°39'0 0.0
2018-Jul-16 15:30N 39°34' E 002°39'0 0.0
2018-Jul-16 15:00N 39°34' E 002°39'0 0.0
2018-Jul-16 14:30N 39°34' E 002°39'0 0.0
2018-Jul-16 14:00N 39°34' E 002°39'0 0.0
2018-Jul-16 13:30N 39°34' E 002°39'0 0.0
2018-Jul-16 13:00N 39°34' E 002°39'0 0.0
2018-Jul-16 12:30N 39°34' E 002°39'0 0.0
2018-Jul-16 12:00N 39°34' E 002°39'0 0.0
2018-Jul-16 11:30N 39°34' E 002°39'0 0.0
2018-Jul-16 11:00N 39°34' E 002°39'0 0.0
2018-Jul-16 10:30N 39°34' E 002°39'0 0.0
2018-Jul-16 10:00N 39°34' E 002°39'0 0.0
2018-Jul-16 09:30N 39°34' E 002°39'1 2.9
2018-Jul-16 09:00N 39°33' E 002°38'3 5.2
2018-Jul-16 08:30N 39°31' E 002°35'1 1.6
2018-Jul-16 07:48N 39°32' E 002°34'0 0.0
2018-Jul-16 07:12N 39°32' E 002°34'0 0.0
2018-Jul-16 06:54N 39°32' E 002°34'0 0.0
2018-Jul-16 00:41N 39°32' E 002°34'0 0.0
2018-Jul-15 23:47N 39°32' E 002°34'0 0.0
2018-Jul-15 23:29N 39°32' E 002°34'0 0.0
2018-Jul-15 16:16N 39°32' E 002°34'0 0.0
2018-Jul-15 12:52N 39°32' E 002°34'0 0.0
2018-Jul-15 12:22N 39°32' E 002°34'0 0.0
2018-Jul-15 04:26N 39°32' E 002°34'0 0.0
2018-Jul-15 03:45N 39°32' E 002°34'0 0.0
2018-Jul-15 03:21N 39°32' E 002°34'0 0.0
2018-Jul-15 02:48N 39°32' E 002°34'0 0.0
2018-Jul-15 02:27N 39°32' E 002°34'0 0.0
2018-Jul-15 00:51N 39°32' E 002°34'0 0.0
2018-Jul-15 00:27N 39°32' E 002°34'0 0.0
2018-Jul-14 10:33N 39°32' E 002°34'0 0.0
2018-Jul-14 10:27N 39°32' E 002°34'0 0.0
2018-Jul-14 10:00N 39°32' E 002°34'0 0.0
2018-Jul-14 08:50N 39°32' E 002°34'0 0.0
2018-Jul-14 08:23N 39°32' E 002°34'0 0.0
2018-Jul-14 07:53N 39°32' E 002°34'0 0.0
2018-Jul-13 08:05N 39°32' E 002°34'0 3.2
2018-Jul-13 07:59N 39°31' E 002°34'2 4.9
2018-Jul-13 07:30N 39°29' E 002°33'2 4.2
2018-Jul-13 07:00N 39°27' E 002°32'  
2018-Jul-10 16:02N 38°55' E 001°13'1 7.7
2018-Jul-10 15:54N 38°54' E 001°12'19 0.8
2018-Jul-09 17:11N 38°42' E 001°31'5 1.2
2018-Jul-09 13:06N 38°45' E 001°26'0 0.1
2018-Jul-09 13:00N 38°45' E 001°26'0 0.0
2018-Jul-09 12:24N 38°45' E 001°26'  
Track history (hours):
 
Tides and Currents Weather Stations Pressure Air Temp Water Temp Dewpoint Dewpoint Depression Visibility Wind Speed Wind Dir Waves Ship Positions

S/y Irbis

Last reported at 2018-Jul-18 04:03 UTC. Time now 2018-Jul-21 03:36 UTC.
Position N 39°22' E 002°55'.

Length 13 m.

Type: Sailing vessel. MMSI: 325725000.

Date/timePositionNaut miles runAvg speedWind from/ knotsBaromVisibWave heightAir tempDewpointWater temp
2018-Jul-18 04:03N 39°22' E 002°55'0 0.0
2018-Jul-18 03:33N 39°22' E 002°55'6 0.5
2018-Jul-17 15:20N 39°22' E 002°47'2 6.1
2018-Jul-17 15:00N 39°23' E 002°45'2 4.7
2018-Jul-17 14:29N 39°25' E 002°43'2 4.9
2018-Jul-17 13:59N 39°27' E 002°41'2 3.6
2018-Jul-17 13:30N 39°28' E 002°40'2 3.9
2018-Jul-17 13:00N 39°30' E 002°41'3 5.8
2018-Jul-17 12:30N 39°33' E 002°39'2 3.1
2018-Jul-17 12:01N 39°34' E 002°39'0 0.0
2018-Jul-17 11:31N 39°34' E 002°39'0 0.0
2018-Jul-17 11:01N 39°34' E 002°39'0 0.0
2018-Jul-17 10:28N 39°34' E 002°39'0 0.0
2018-Jul-17 09:58N 39°34' E 002°39'0 0.0
2018-Jul-17 09:31N 39°34' E 002°39'0 0.0
2018-Jul-17 09:01N 39°34' E 002°39'0 0.0
2018-Jul-17 08:28N 39°34' E 002°39'0 0.0
2018-Jul-17 08:01N 39°34' E 002°39'0 0.0
2018-Jul-17 07:28N 39°34' E 002°39'0 0.0
2018-Jul-17 07:00N 39°34' E 002°39'0 0.0
2018-Jul-17 06:29N 39°34' E 002°39'0 0.0
2018-Jul-17 05:59N 39°34' E 002°39'0 0.0
2018-Jul-17 05:29N 39°34' E 002°39'0 0.0
2018-Jul-17 04:59N 39°34' E 002°39'0 0.0
2018-Jul-17 04:29N 39°34' E 002°39'0 0.0
2018-Jul-17 03:59N 39°34' E 002°39'0 0.0
2018-Jul-17 03:29N 39°34' E 002°39'0 0.0
2018-Jul-17 02:59N 39°34' E 002°39'0 0.0
2018-Jul-17 02:29N 39°34' E 002°39'0 0.0
2018-Jul-17 01:59N 39°34' E 002°39'0 0.0
2018-Jul-17 01:29N 39°34' E 002°39'0 0.0
2018-Jul-17 00:59N 39°34' E 002°39'0 0.0
2018-Jul-17 00:26N 39°34' E 002°39'0 0.0
2018-Jul-16 23:29N 39°34' E 002°39'0 0.0
2018-Jul-16 22:56N 39°34' E 002°39'0 0.0
2018-Jul-16 22:29N 39°34' E 002°39'0 0.0
2018-Jul-16 21:59N 39°34' E 002°39'0 0.0
2018-Jul-16 21:29N 39°34' E 002°39'0 0.0
2018-Jul-16 20:56N 39°34' E 002°39'0 0.0
2018-Jul-16 20:29N 39°34' E 002°39'0 0.0
2018-Jul-16 19:59N 39°34' E 002°39'0 0.0
2018-Jul-16 19:29N 39°34' E 002°39'0 0.0
2018-Jul-16 18:59N 39°34' E 002°39'0 0.0
2018-Jul-16 18:28N 39°34' E 002°39'0 0.0
2018-Jul-16 17:58N 39°34' E 002°39'0 0.0
2018-Jul-16 17:28N 39°34' E 002°39'0 0.0
2018-Jul-16 17:01N 39°34' E 002°39'0 0.0
2018-Jul-16 16:28N 39°34' E 002°39'0 0.0
2018-Jul-16 15:58N 39°34' E 002°39'0 0.0
2018-Jul-16 15:30N 39°34' E 002°39'0 0.0
2018-Jul-16 15:00N 39°34' E 002°39'0 0.0
2018-Jul-16 14:30N 39°34' E 002°39'0 0.0
2018-Jul-16 14:00N 39°34' E 002°39'0 0.0
2018-Jul-16 13:30N 39°34' E 002°39'0 0.0
2018-Jul-16 13:00N 39°34' E 002°39'0 0.0
2018-Jul-16 12:30N 39°34' E 002°39'0 0.0
2018-Jul-16 12:00N 39°34' E 002°39'0 0.0
2018-Jul-16 11:30N 39°34' E 002°39'0 0.0
2018-Jul-16 11:00N 39°34' E 002°39'0 0.0
2018-Jul-16 10:30N 39°34' E 002°39'0 0.0
2018-Jul-16 10:00N 39°34' E 002°39'0 0.0
2018-Jul-16 09:30N 39°34' E 002°39'1 2.9
2018-Jul-16 09:00N 39°33' E 002°38'3 5.2
2018-Jul-16 08:30N 39°31' E 002°35'1 1.6
2018-Jul-16 07:48N 39°32' E 002°34'0 0.0
2018-Jul-16 07:12N 39°32' E 002°34'0 0.0
2018-Jul-16 06:54N 39°32' E 002°34'0 0.0
2018-Jul-16 00:41N 39°32' E 002°34'0 0.0
2018-Jul-15 23:47N 39°32' E 002°34'0 0.0
2018-Jul-15 23:29N 39°32' E 002°34'0 0.0
2018-Jul-15 16:16N 39°32' E 002°34'0 0.0
2018-Jul-15 12:52N 39°32' E 002°34'0 0.0
2018-Jul-15 12:22N 39°32' E 002°34'0 0.0
2018-Jul-15 04:26N 39°32' E 002°34'0 0.0
2018-Jul-15 03:45N 39°32' E 002°34'0 0.0
2018-Jul-15 03:21N 39°32' E 002°34'0 0.0
2018-Jul-15 02:48N 39°32' E 002°34'0 0.0
2018-Jul-15 02:27N 39°32' E 002°34'0 0.0
2018-Jul-15 00:51N 39°32' E 002°34'0 0.0
2018-Jul-15 00:27N 39°32' E 002°34'0 0.0
2018-Jul-14 10:33N 39°32' E 002°34'0 0.0
2018-Jul-14 10:27N 39°32' E 002°34'0 0.0
2018-Jul-14 10:00N 39°32' E 002°34'0 0.0
2018-Jul-14 08:50N 39°32' E 002°34'0 0.0
2018-Jul-14 08:23N 39°32' E 002°34'0 0.0
2018-Jul-14 07:53N 39°32' E 002°34'0 0.0
2018-Jul-13 08:05N 39°32' E 002°34'0 3.2
2018-Jul-13 07:59N 39°31' E 002°34'2 4.9
2018-Jul-13 07:30N 39°29' E 002°33'2 4.2
2018-Jul-13 07:00N 39°27' E 002°32'  
2018-Jul-10 16:02N 38°55' E 001°13'1 7.7
2018-Jul-10 15:54N 38°54' E 001°12'19 0.8
2018-Jul-09 17:11N 38°42' E 001°31'5 1.2
2018-Jul-09 13:06N 38°45' E 001°26'0 0.1
2018-Jul-09 13:00N 38°45' E 001°26'0 0.0
2018-Jul-09 12:24N 38°45' E 001°26'  

Dump ship's entire track history